sensor_id;sensor_type;location;lat;lon;timestamp;P1;durP1;ratioP1;P2;durP2;ratioP2
2289;SDS011;1153;47.986;7.898;2022-11-12T00:02:18;3.77;;;1.73;;
2289;SDS011;1153;47.986;7.898;2022-11-12T00:04:43;1.17;;;0.90;;
2289;SDS011;1153;47.986;7.898;2022-11-12T00:07:08;1.53;;;1.30;;
2289;SDS011;1153;47.986;7.898;2022-11-12T00:09:33;4.63;;;1.00;;
2289;SDS011;1153;47.986;7.898;2022-11-12T00:11:58;1.50;;;1.40;;
2289;SDS011;1153;47.986;7.898;2022-11-12T00:14:24;1.47;;;1.00;;
2289;SDS011;1153;47.986;7.898;2022-11-12T00:16:49;1.70;;;1.27;;
2289;SDS011;1153;47.986;7.898;2022-11-12T00:19:14;1.57;;;1.47;;
2289;SDS011;1153;47.986;7.898;2022-11-12T00:21:39;2.97;;;0.80;;
2289;SDS011;1153;47.986;7.898;2022-11-12T00:24:04;2.03;;;1.17;;
2289;SDS011;1153;47.986;7.898;2022-11-12T00:26:30;2.17;;;1.47;;
2289;SDS011;1153;47.986;7.898;2022-11-12T00:28:55;2.13;;;1.93;;
2289;SDS011;1153;47.986;7.898;2022-11-12T00:31:20;3.80;;;1.00;;
2289;SDS011;1153;47.986;7.898;2022-11-12T00:33:45;1.50;;;1.40;;
2289;SDS011;1153;47.986;7.898;2022-11-12T00:36:10;1.50;;;0.80;;
2289;SDS011;1153;47.986;7.898;2022-11-12T00:38:36;0.97;;;0.87;;
2289;SDS011;1153;47.986;7.898;2022-11-12T00:41:01;4.50;;;0.80;;
2289;SDS011;1153;47.986;7.898;2022-11-12T00:43:26;1.20;;;0.77;;
2289;SDS011;1153;47.986;7.898;2022-11-12T00:45:51;1.20;;;1.00;;
2289;SDS011;1153;47.986;7.898;2022-11-12T00:48:17;1.23;;;1.00;;
2289;SDS011;1153;47.986;7.898;2022-11-12T00:50:42;2.90;;;1.53;;
2289;SDS011;1153;47.986;7.898;2022-11-12T00:53:07;1.00;;;0.87;;
2289;SDS011;1153;47.986;7.898;2022-11-12T00:55:32;1.40;;;1.00;;
2289;SDS011;1153;47.986;7.898;2022-11-12T00:57:57;1.50;;;0.90;;
2289;SDS011;1153;47.986;7.898;2022-11-12T01:00:23;1.10;;;1.00;;
2289;SDS011;1153;47.986;7.898;2022-11-12T01:02:48;1.27;;;0.80;;
2289;SDS011;1153;47.986;7.898;2022-11-12T01:05:14;1.17;;;0.90;;
2289;SDS011;1153;47.986;7.898;2022-11-12T01:07:39;1.10;;;1.00;;
2289;SDS011;1153;47.986;7.898;2022-11-12T01:10:04;1.30;;;0.70;;
2289;SDS011;1153;47.986;7.898;2022-11-12T01:12:30;1.80;;;0.83;;
2289;SDS011;1153;47.986;7.898;2022-11-12T01:14:55;1.50;;;1.40;;
2289;SDS011;1153;47.986;7.898;2022-11-12T01:17:20;1.27;;;0.90;;
2289;SDS011;1153;47.986;7.898;2022-11-12T01:19:46;2.23;;;1.17;;
2289;SDS011;1153;47.986;7.898;2022-11-12T01:22:11;1.83;;;0.73;;
2289;SDS011;1153;47.986;7.898;2022-11-12T01:24:36;1.17;;;0.77;;
2289;SDS011;1153;47.986;7.898;2022-11-12T01:27:01;4.23;;;1.43;;
2289;SDS011;1153;47.986;7.898;2022-11-12T01:29:27;1.40;;;1.07;;
2289;SDS011;1153;47.986;7.898;2022-11-12T01:31:52;2.03;;;1.20;;
2289;SDS011;1153;47.986;7.898;2022-11-12T01:34:17;0.93;;;0.60;;
2289;SDS011;1153;47.986;7.898;2022-11-12T01:36:42;1.00;;;0.90;;
2289;SDS011;1153;47.986;7.898;2022-11-12T01:39:08;2.50;;;0.60;;
2289;SDS011;1153;47.986;7.898;2022-11-12T01:41:34;2.50;;;0.63;;
2289;SDS011;1153;47.986;7.898;2022-11-12T01:46:31;2.50;;;0.83;;
2289;SDS011;1153;47.986;7.898;2022-11-12T01:49:00;1.33;;;0.70;;
2289;SDS011;1153;47.986;7.898;2022-11-12T01:51:28;1.20;;;0.80;;
2289;SDS011;1153;47.986;7.898;2022-11-12T01:53:56;1.73;;;0.80;;
2289;SDS011;1153;47.986;7.898;2022-11-12T01:56:23;3.00;;;1.10;;
2289;SDS011;1153;47.986;7.898;2022-11-12T01:58:51;0.90;;;0.60;;
2289;SDS011;1153;47.986;7.898;2022-11-12T02:01:18;4.87;;;0.83;;
2289;SDS011;1153;47.986;7.898;2022-11-12T02:03:43;1.00;;;0.80;;
2289;SDS011;1153;47.986;7.898;2022-11-12T02:06:10;0.83;;;0.53;;
2289;SDS011;1153;47.986;7.898;2022-11-12T02:08:36;1.00;;;0.60;;
2289;SDS011;1153;47.986;7.898;2022-11-12T02:11:09;1.20;;;0.80;;
2289;SDS011;1153;47.986;7.898;2022-11-12T02:13:35;1.00;;;0.70;;
2289;SDS011;1153;47.986;7.898;2022-11-12T02:16:18;2.07;;;0.70;;
2289;SDS011;1153;47.986;7.898;2022-11-12T02:18:44;1.30;;;0.70;;
2289;SDS011;1153;47.986;7.898;2022-11-12T02:21:09;1.00;;;0.87;;
2289;SDS011;1153;47.986;7.898;2022-11-12T02:23:34;2.60;;;0.70;;
2289;SDS011;1153;47.986;7.898;2022-11-12T02:26:01;1.47;;;0.80;;
2289;SDS011;1153;47.986;7.898;2022-11-12T02:28:26;0.90;;;0.80;;
2289;SDS011;1153;47.986;7.898;2022-11-12T02:30:52;1.90;;;0.63;;
2289;SDS011;1153;47.986;7.898;2022-11-12T02:33:17;1.10;;;0.70;;
2289;SDS011;1153;47.986;7.898;2022-11-12T02:35:43;1.23;;;0.60;;
2289;SDS011;1153;47.986;7.898;2022-11-12T02:38:08;2.70;;;0.80;;
2289;SDS011;1153;47.986;7.898;2022-11-12T02:40:33;0.90;;;0.60;;
2289;SDS011;1153;47.986;7.898;2022-11-12T02:42:59;1.00;;;0.60;;
2289;SDS011;1153;47.986;7.898;2022-11-12T02:45:24;1.00;;;0.60;;
2289;SDS011;1153;47.986;7.898;2022-11-12T02:47:50;0.90;;;0.60;;
2289;SDS011;1153;47.986;7.898;2022-11-12T02:50:15;8.10;;;0.90;;
2289;SDS011;1153;47.986;7.898;2022-11-12T02:52:40;1.10;;;0.90;;
2289;SDS011;1153;47.986;7.898;2022-11-12T02:55:06;1.33;;;0.93;;
2289;SDS011;1153;47.986;7.898;2022-11-12T02:57:31;1.30;;;0.73;;
2289;SDS011;1153;47.986;7.898;2022-11-12T02:59:56;1.30;;;0.90;;
2289;SDS011;1153;47.986;7.898;2022-11-12T03:02:22;1.20;;;0.70;;
2289;SDS011;1153;47.986;7.898;2022-11-12T03:04:47;1.10;;;0.60;;
2289;SDS011;1153;47.986;7.898;2022-11-12T03:07:12;5.57;;;0.83;;
2289;SDS011;1153;47.986;7.898;2022-11-12T03:09:37;12.07;;;1.47;;
2289;SDS011;1153;47.986;7.898;2022-11-12T03:12:02;0.83;;;0.73;;
2289;SDS011;1153;47.986;7.898;2022-11-12T03:14:28;0.77;;;0.50;;
2289;SDS011;1153;47.986;7.898;2022-11-12T03:16:53;1.17;;;0.80;;
2289;SDS011;1153;47.986;7.898;2022-11-12T03:19:18;0.90;;;0.80;;
2289;SDS011;1153;47.986;7.898;2022-11-12T03:21:43;1.50;;;1.40;;
2289;SDS011;1153;47.986;7.898;2022-11-12T03:24:08;1.00;;;0.90;;
2289;SDS011;1153;47.986;7.898;2022-11-12T03:26:34;0.90;;;0.67;;
2289;SDS011;1153;47.986;7.898;2022-11-12T03:28:59;1.10;;;0.97;;
2289;SDS011;1153;47.986;7.898;2022-11-12T03:31:24;1.30;;;1.20;;
2289;SDS011;1153;47.986;7.898;2022-11-12T03:33:49;1.40;;;1.30;;
2289;SDS011;1153;47.986;7.898;2022-11-12T03:36:14;1.60;;;1.50;;
2289;SDS011;1153;47.986;7.898;2022-11-12T03:38:39;3.03;;;1.07;;
2289;SDS011;1153;47.986;7.898;2022-11-12T03:41:05;1.37;;;1.00;;
2289;SDS011;1153;47.986;7.898;2022-11-12T03:43:30;1.33;;;0.57;;
2289;SDS011;1153;47.986;7.898;2022-11-12T03:45:55;0.90;;;0.60;;
2289;SDS011;1153;47.986;7.898;2022-11-12T03:48:20;2.00;;;0.60;;
2289;SDS011;1153;47.986;7.898;2022-11-12T03:53:49;1.20;;;0.63;;
2289;SDS011;1153;47.986;7.898;2022-11-12T03:56:14;0.70;;;0.50;;
2289;SDS011;1153;47.986;7.898;2022-11-12T03:58:39;0.97;;;0.67;;
2289;SDS011;1153;47.986;7.898;2022-11-12T04:01:04;1.20;;;1.03;;
2289;SDS011;1153;47.986;7.898;2022-11-12T04:03:29;0.90;;;0.80;;
2289;SDS011;1153;47.986;7.898;2022-11-12T04:05:55;0.80;;;0.80;;
2289;SDS011;1153;47.986;7.898;2022-11-12T04:08:40;4.00;;;0.70;;
2289;SDS011;1153;47.986;7.898;2022-11-12T04:11:07;0.90;;;0.70;;
2289;SDS011;1153;47.986;7.898;2022-11-12T04:13:32;0.80;;;0.50;;
2289;SDS011;1153;47.986;7.898;2022-11-12T04:16:17;0.80;;;0.60;;
2289;SDS011;1153;47.986;7.898;2022-11-12T04:19:02;3.13;;;0.60;;
2289;SDS011;1153;47.986;7.898;2022-11-12T04:27:13;2.50;;;0.60;;
2289;SDS011;1153;47.986;7.898;2022-11-12T04:29:39;0.70;;;0.50;;
2289;SDS011;1153;47.986;7.898;2022-11-12T04:32:22;1.73;;;0.50;;
2289;SDS011;1153;47.986;7.898;2022-11-12T04:34:49;2.50;;;0.60;;
2289;SDS011;1153;47.986;7.898;2022-11-12T04:37:14;0.90;;;0.50;;
2289;SDS011;1153;47.986;7.898;2022-11-12T04:39:39;1.10;;;0.50;;
2289;SDS011;1153;47.986;7.898;2022-11-12T04:42:06;0.70;;;0.50;;
2289;SDS011;1153;47.986;7.898;2022-11-12T04:44:50;1.73;;;0.60;;
2289;SDS011;1153;47.986;7.898;2022-11-12T04:47:30;0.90;;;0.60;;
2289;SDS011;1153;47.986;7.898;2022-11-12T04:49:55;0.80;;;0.50;;
2289;SDS011;1153;47.986;7.898;2022-11-12T04:52:21;0.70;;;0.60;;
2289;SDS011;1153;47.986;7.898;2022-11-12T04:54:46;1.43;;;0.73;;
2289;SDS011;1153;47.986;7.898;2022-11-12T04:57:11;7.60;;;0.90;;
2289;SDS011;1153;47.986;7.898;2022-11-12T04:59:36;0.70;;;0.50;;
2289;SDS011;1153;47.986;7.898;2022-11-12T05:02:01;2.50;;;0.67;;
2289;SDS011;1153;47.986;7.898;2022-11-12T05:04:27;1.03;;;0.70;;
2289;SDS011;1153;47.986;7.898;2022-11-12T05:06:56;0.80;;;0.40;;
2289;SDS011;1153;47.986;7.898;2022-11-12T05:09:25;0.90;;;0.50;;
2289;SDS011;1153;47.986;7.898;2022-11-12T05:11:51;5.33;;;0.73;;
2289;SDS011;1153;47.986;7.898;2022-11-12T05:14:17;0.80;;;0.50;;
2289;SDS011;1153;47.986;7.898;2022-11-12T05:16:42;0.97;;;0.50;;
2289;SDS011;1153;47.986;7.898;2022-11-12T05:19:07;1.20;;;0.93;;
2289;SDS011;1153;47.986;7.898;2022-11-12T05:21:33;1.57;;;1.47;;
2289;SDS011;1153;47.986;7.898;2022-11-12T05:24:16;1.97;;;1.87;;
2289;SDS011;1153;47.986;7.898;2022-11-12T05:26:42;1.80;;;1.70;;
2289;SDS011;1153;47.986;7.898;2022-11-12T05:29:07;2.80;;;1.03;;
2289;SDS011;1153;47.986;7.898;2022-11-12T05:31:32;2.30;;;0.50;;
2289;SDS011;1153;47.986;7.898;2022-11-12T05:33:58;0.80;;;0.50;;
2289;SDS011;1153;47.986;7.898;2022-11-12T05:36:23;1.00;;;0.60;;
2289;SDS011;1153;47.986;7.898;2022-11-12T05:38:48;0.80;;;0.43;;
2289;SDS011;1153;47.986;7.898;2022-11-12T05:41:13;3.63;;;0.57;;
2289;SDS011;1153;47.986;7.898;2022-11-12T05:43:39;1.40;;;1.00;;
2289;SDS011;1153;47.986;7.898;2022-11-12T05:46:04;0.80;;;0.60;;
2289;SDS011;1153;47.986;7.898;2022-11-12T05:48:29;1.57;;;1.47;;
2289;SDS011;1153;47.986;7.898;2022-11-12T05:50:55;1.60;;;1.50;;
2289;SDS011;1153;47.986;7.898;2022-11-12T05:53:20;4.77;;;1.63;;
2289;SDS011;1153;47.986;7.898;2022-11-12T05:55:45;1.80;;;1.67;;
2289;SDS011;1153;47.986;7.898;2022-11-12T05:58:10;2.10;;;2.00;;
2289;SDS011;1153;47.986;7.898;2022-11-12T06:00:35;2.10;;;2.00;;
2289;SDS011;1153;47.986;7.898;2022-11-12T06:03:09;1.60;;;1.50;;
2289;SDS011;1153;47.986;7.898;2022-11-12T06:05:35;1.87;;;1.50;;
2289;SDS011;1153;47.986;7.898;2022-11-12T06:08:01;1.20;;;1.07;;
2289;SDS011;1153;47.986;7.898;2022-11-12T06:10:27;1.03;;;0.80;;
2289;SDS011;1153;47.986;7.898;2022-11-12T06:12:53;1.23;;;1.13;;
2289;SDS011;1153;47.986;7.898;2022-11-12T06:15:18;8.53;;;0.80;;
2289;SDS011;1153;47.986;7.898;2022-11-12T06:17:44;1.40;;;1.00;;
2289;SDS011;1153;47.986;7.898;2022-11-12T06:20:09;1.00;;;0.70;;
2289;SDS011;1153;47.986;7.898;2022-11-12T06:22:34;1.07;;;0.87;;
2289;SDS011;1153;47.986;7.898;2022-11-12T06:25:00;1.10;;;0.77;;
2289;SDS011;1153;47.986;7.898;2022-11-12T06:27:25;3.80;;;1.00;;
2289;SDS011;1153;47.986;7.898;2022-11-12T06:29:50;1.30;;;0.97;;
2289;SDS011;1153;47.986;7.898;2022-11-12T06:32:15;1.30;;;1.13;;
2289;SDS011;1153;47.986;7.898;2022-11-12T06:34:41;2.30;;;0.90;;
2289;SDS011;1153;47.986;7.898;2022-11-12T06:37:06;2.07;;;1.97;;
2289;SDS011;1153;47.986;7.898;2022-11-12T06:39:31;1.20;;;1.00;;
2289;SDS011;1153;47.986;7.898;2022-11-12T06:41:56;1.77;;;0.80;;
2289;SDS011;1153;47.986;7.898;2022-11-12T06:44:21;1.13;;;1.03;;
2289;SDS011;1153;47.986;7.898;2022-11-12T06:46:47;2.40;;;1.07;;
2289;SDS011;1153;47.986;7.898;2022-11-12T06:49:12;1.10;;;0.87;;
2289;SDS011;1153;47.986;7.898;2022-11-12T06:51:37;1.33;;;0.93;;
2289;SDS011;1153;47.986;7.898;2022-11-12T06:54:04;1.50;;;1.27;;
2289;SDS011;1153;47.986;7.898;2022-11-12T06:56:29;1.90;;;0.87;;
2289;SDS011;1153;47.986;7.898;2022-11-12T06:58:54;1.30;;;0.83;;
2289;SDS011;1153;47.986;7.898;2022-11-12T07:01:19;1.40;;;1.30;;
2289;SDS011;1153;47.986;7.898;2022-11-12T07:03:44;2.60;;;1.37;;
2289;SDS011;1153;47.986;7.898;2022-11-12T07:06:11;1.77;;;1.10;;
2289;SDS011;1153;47.986;7.898;2022-11-12T07:08:37;1.80;;;1.30;;
2289;SDS011;1153;47.986;7.898;2022-11-12T07:11:03;2.93;;;2.00;;
2289;SDS011;1153;47.986;7.898;2022-11-12T07:13:29;2.20;;;1.50;;
2289;SDS011;1153;47.986;7.898;2022-11-12T07:15:55;1.87;;;1.50;;
2289;SDS011;1153;47.986;7.898;2022-11-12T07:18:21;6.23;;;2.87;;
2289;SDS011;1153;47.986;7.898;2022-11-12T07:20:46;3.87;;;3.13;;
2289;SDS011;1153;47.986;7.898;2022-11-12T07:23:11;3.13;;;2.73;;
2289;SDS011;1153;47.986;7.898;2022-11-12T07:25:36;2.93;;;2.73;;
2289;SDS011;1153;47.986;7.898;2022-11-12T07:28:01;2.93;;;2.70;;
2289;SDS011;1153;47.986;7.898;2022-11-12T07:30:27;1.60;;;1.50;;
2289;SDS011;1153;47.986;7.898;2022-11-12T07:32:52;3.53;;;1.90;;
2289;SDS011;1153;47.986;7.898;2022-11-12T07:35:17;2.60;;;1.77;;
2289;SDS011;1153;47.986;7.898;2022-11-12T07:37:42;2.37;;;2.23;;
2289;SDS011;1153;47.986;7.898;2022-11-12T07:40:08;2.80;;;2.70;;
2289;SDS011;1153;47.986;7.898;2022-11-12T07:42:33;3.17;;;2.73;;
2289;SDS011;1153;47.986;7.898;2022-11-12T07:44:59;2.30;;;2.20;;
2289;SDS011;1153;47.986;7.898;2022-11-12T07:47:24;6.13;;;3.40;;
2289;SDS011;1153;47.986;7.898;2022-11-12T07:49:49;5.50;;;4.37;;
2289;SDS011;1153;47.986;7.898;2022-11-12T07:52:14;5.33;;;4.83;;
2289;SDS011;1153;47.986;7.898;2022-11-12T07:54:39;4.20;;;3.83;;
2289;SDS011;1153;47.986;7.898;2022-11-12T07:57:05;1.33;;;1.23;;
2289;SDS011;1153;47.986;7.898;2022-11-12T07:59:30;1.80;;;1.67;;
2289;SDS011;1153;47.986;7.898;2022-11-12T08:01:55;5.10;;;2.37;;
2289;SDS011;1153;47.986;7.898;2022-11-12T08:04:20;3.50;;;2.30;;
2289;SDS011;1153;47.986;7.898;2022-11-12T08:06:45;2.43;;;2.33;;
2289;SDS011;1153;47.986;7.898;2022-11-12T08:09:11;3.30;;;3.00;;
2289;SDS011;1153;47.986;7.898;2022-11-12T08:11:36;4.40;;;4.20;;
2289;SDS011;1153;47.986;7.898;2022-11-12T08:14:01;2.77;;;2.67;;
2289;SDS011;1153;47.986;7.898;2022-11-12T08:16:27;5.30;;;3.07;;
2289;SDS011;1153;47.986;7.898;2022-11-12T08:18:52;7.80;;;3.77;;
2289;SDS011;1153;47.986;7.898;2022-11-12T08:21:17;11.93;;;4.87;;
2289;SDS011;1153;47.986;7.898;2022-11-12T08:23:43;5.30;;;4.87;;
2289;SDS011;1153;47.986;7.898;2022-11-12T08:26:09;6.40;;;5.00;;
2289;SDS011;1153;47.986;7.898;2022-11-12T08:28:35;5.83;;;4.63;;
2289;SDS011;1153;47.986;7.898;2022-11-12T08:31:08;12.23;;;5.47;;
2289;SDS011;1153;47.986;7.898;2022-11-12T08:33:34;5.37;;;4.67;;
2289;SDS011;1153;47.986;7.898;2022-11-12T08:36:02;15.93;;;6.40;;
2289;SDS011;1153;47.986;7.898;2022-11-12T08:38:28;5.40;;;4.90;;
2289;SDS011;1153;47.986;7.898;2022-11-12T08:40:53;12.17;;;5.10;;
2289;SDS011;1153;47.986;7.898;2022-11-12T08:43:18;15.73;;;6.90;;
2289;SDS011;1153;47.986;7.898;2022-11-12T08:45:43;22.37;;;6.67;;
2289;SDS011;1153;47.986;7.898;2022-11-12T08:48:10;68.10;;;8.90;;
2289;SDS011;1153;47.986;7.898;2022-11-12T08:50:36;11.53;;;7.00;;
2289;SDS011;1153;47.986;7.898;2022-11-12T08:53:03;7.97;;;6.43;;
2289;SDS011;1153;47.986;7.898;2022-11-12T08:55:29;12.10;;;7.23;;
2289;SDS011;1153;47.986;7.898;2022-11-12T08:57:54;9.00;;;6.47;;
2289;SDS011;1153;47.986;7.898;2022-11-12T09:00:19;10.03;;;6.47;;
2289;SDS011;1153;47.986;7.898;2022-11-12T09:02:45;31.33;;;6.20;;
2289;SDS011;1153;47.986;7.898;2022-11-12T09:05:10;9.53;;;5.27;;
2289;SDS011;1153;47.986;7.898;2022-11-12T09:07:35;20.50;;;6.43;;
2289;SDS011;1153;47.986;7.898;2022-11-12T09:10:00;6.53;;;5.53;;
2289;SDS011;1153;47.986;7.898;2022-11-12T09:12:26;13.40;;;5.70;;
2289;SDS011;1153;47.986;7.898;2022-11-12T09:14:51;8.97;;;5.50;;
2289;SDS011;1153;47.986;7.898;2022-11-12T09:17:16;7.67;;;6.17;;
2289;SDS011;1153;47.986;7.898;2022-11-12T09:19:41;4.33;;;3.93;;
2289;SDS011;1153;47.986;7.898;2022-11-12T09:22:07;4.13;;;3.73;;
2289;SDS011;1153;47.986;7.898;2022-11-12T09:24:32;5.27;;;4.40;;
2289;SDS011;1153;47.986;7.898;2022-11-12T09:26:57;8.90;;;4.60;;
2289;SDS011;1153;47.986;7.898;2022-11-12T09:29:22;8.27;;;4.70;;
2289;SDS011;1153;47.986;7.898;2022-11-12T09:31:47;8.30;;;5.00;;
2289;SDS011;1153;47.986;7.898;2022-11-12T09:34:13;8.87;;;5.07;;
2289;SDS011;1153;47.986;7.898;2022-11-12T09:36:38;9.00;;;5.87;;
2289;SDS011;1153;47.986;7.898;2022-11-12T09:39:03;5.87;;;5.10;;
2289;SDS011;1153;47.986;7.898;2022-11-12T09:41:31;5.23;;;4.83;;
2289;SDS011;1153;47.986;7.898;2022-11-12T09:44:07;8.37;;;5.33;;
2289;SDS011;1153;47.986;7.898;2022-11-12T09:46:41;9.70;;;5.90;;
2289;SDS011;1153;47.986;7.898;2022-11-12T09:49:11;8.53;;;5.97;;
2289;SDS011;1153;47.986;7.898;2022-11-12T09:51:41;6.90;;;6.20;;
2289;SDS011;1153;47.986;7.898;2022-11-12T09:54:18;5.87;;;5.30;;
2289;SDS011;1153;47.986;7.898;2022-11-12T09:56:43;8.33;;;5.90;;
2289;SDS011;1153;47.986;7.898;2022-11-12T09:59:11;7.43;;;5.90;;
2289;SDS011;1153;47.986;7.898;2022-11-12T10:09:58;9.57;;;5.73;;
2289;SDS011;1153;47.986;7.898;2022-11-12T10:12:26;5.73;;;5.13;;
2289;SDS011;1153;47.986;7.898;2022-11-12T10:20:40;8.03;;;7.23;;
2289;SDS011;1153;47.986;7.898;2022-11-12T10:23:14;11.47;;;7.90;;
2289;SDS011;1153;47.986;7.898;2022-11-12T10:25:41;7.00;;;6.23;;
2289;SDS011;1153;47.986;7.898;2022-11-12T10:28:12;6.63;;;6.03;;
2289;SDS011;1153;47.986;7.898;2022-11-12T10:30:40;17.27;;;7.90;;
2289;SDS011;1153;47.986;7.898;2022-11-12T10:33:09;10.20;;;7.03;;
2289;SDS011;1153;47.986;7.898;2022-11-12T10:35:35;7.27;;;6.67;;
2289;SDS011;1153;47.986;7.898;2022-11-12T10:38:04;9.40;;;8.50;;
2289;SDS011;1153;47.986;7.898;2022-11-12T10:40:37;7.07;;;6.37;;
2289;SDS011;1153;47.986;7.898;2022-11-12T10:45:40;8.30;;;6.70;;
2289;SDS011;1153;47.986;7.898;2022-11-12T10:50:46;6.80;;;5.10;;
2289;SDS011;1153;47.986;7.898;2022-11-12T10:53:11;7.47;;;6.87;;
2289;SDS011;1153;47.986;7.898;2022-11-12T10:55:37;6.27;;;5.63;;
2289;SDS011;1153;47.986;7.898;2022-11-12T10:58:14;6.87;;;6.20;;
2289;SDS011;1153;47.986;7.898;2022-11-12T11:03:24;6.97;;;6.27;;
2289;SDS011;1153;47.986;7.898;2022-11-12T11:08:38;9.83;;;6.60;;
2289;SDS011;1153;47.986;7.898;2022-11-12T11:11:09;7.90;;;5.83;;
2289;SDS011;1153;47.986;7.898;2022-11-12T11:13:38;7.50;;;6.37;;
2289;SDS011;1153;47.986;7.898;2022-11-12T11:16:03;7.53;;;6.37;;
2289;SDS011;1153;47.986;7.898;2022-11-12T11:18:30;7.30;;;6.60;;
2289;SDS011;1153;47.986;7.898;2022-11-12T11:21:05;7.87;;;7.10;;
2289;SDS011;1153;47.986;7.898;2022-11-12T11:25:58;8.30;;;6.73;;
2289;SDS011;1153;47.986;7.898;2022-11-12T11:30:54;6.05;;;5.63;;
2289;SDS011;1153;47.986;7.898;2022-11-12T11:33:25;8.87;;;7.50;;
2289;SDS011;1153;47.986;7.898;2022-11-12T11:36:05;9.57;;;7.50;;
2289;SDS011;1153;47.986;7.898;2022-11-12T11:46:38;9.53;;;6.90;;
2289;SDS011;1153;47.986;7.898;2022-11-12T11:49:30;11.20;;;7.30;;
2289;SDS011;1153;47.986;7.898;2022-11-12T11:56:55;10.03;;;8.10;;
2289;SDS011;1153;47.986;7.898;2022-11-12T12:14:59;14.73;;;8.33;;
2289;SDS011;1153;47.986;7.898;2022-11-12T12:20:04;10.90;;;9.00;;
2289;SDS011;1153;47.986;7.898;2022-11-12T12:22:40;15.97;;;10.10;;
2289;SDS011;1153;47.986;7.898;2022-11-12T12:25:10;11.93;;;9.60;;
2289;SDS011;1153;47.986;7.898;2022-11-12T12:27:39;13.20;;;9.80;;
2289;SDS011;1153;47.986;7.898;2022-11-12T12:30:19;14.87;;;10.13;;
2289;SDS011;1153;47.986;7.898;2022-11-12T12:32:58;15.17;;;9.70;;
2289;SDS011;1153;47.986;7.898;2022-11-12T12:35:47;15.17;;;10.20;;
2289;SDS011;1153;47.986;7.898;2022-11-12T12:38:16;15.87;;;9.17;;
2289;SDS011;1153;47.986;7.898;2022-11-12T12:43:31;16.10;;;11.60;;
2289;SDS011;1153;47.986;7.898;2022-11-12T12:45:58;11.93;;;10.47;;
2289;SDS011;1153;47.986;7.898;2022-11-12T12:48:26;16.17;;;11.37;;
2289;SDS011;1153;47.986;7.898;2022-11-12T12:50:53;15.40;;;10.70;;
2289;SDS011;1153;47.986;7.898;2022-11-12T12:55:50;17.83;;;12.00;;
2289;SDS011;1153;47.986;7.898;2022-11-12T12:58:16;17.03;;;11.57;;
2289;SDS011;1153;47.986;7.898;2022-11-12T13:00:45;25.63;;;15.00;;
2289;SDS011;1153;47.986;7.898;2022-11-12T13:03:11;23.37;;;13.10;;
2289;SDS011;1153;47.986;7.898;2022-11-12T13:05:36;22.40;;;14.30;;
2289;SDS011;1153;47.986;7.898;2022-11-12T13:08:05;17.83;;;12.80;;
2289;SDS011;1153;47.986;7.898;2022-11-12T13:15:41;22.03;;;12.80;;
2289;SDS011;1153;47.986;7.898;2022-11-12T13:18:07;26.43;;;14.20;;
2289;SDS011;1153;47.986;7.898;2022-11-12T13:20:34;16.47;;;10.63;;
2289;SDS011;1153;47.986;7.898;2022-11-12T13:22:59;28.67;;;13.50;;
2289;SDS011;1153;47.986;7.898;2022-11-12T13:25:29;21.17;;;13.20;;
2289;SDS011;1153;47.986;7.898;2022-11-12T13:45:27;22.27;;;13.47;;
2289;SDS011;1153;47.986;7.898;2022-11-12T13:47:52;21.80;;;13.13;;
2289;SDS011;1153;47.986;7.898;2022-11-12T13:50:20;22.40;;;14.40;;
2289;SDS011;1153;47.986;7.898;2022-11-12T13:52:46;17.40;;;13.40;;
2289;SDS011;1153;47.986;7.898;2022-11-12T13:55:12;25.10;;;13.90;;
2289;SDS011;1153;47.986;7.898;2022-11-12T13:57:38;23.07;;;14.57;;
2289;SDS011;1153;47.986;7.898;2022-11-12T14:02:32;26.97;;;16.27;;
2289;SDS011;1153;47.986;7.898;2022-11-12T14:04:57;28.00;;;15.30;;
2289;SDS011;1153;47.986;7.898;2022-11-12T14:22:50;26.63;;;15.50;;
2289;SDS011;1153;47.986;7.898;2022-11-12T14:25:17;29.03;;;16.77;;
2289;SDS011;1153;47.986;7.898;2022-11-12T14:27:43;31.93;;;16.43;;
2289;SDS011;1153;47.986;7.898;2022-11-12T14:32:34;30.33;;;15.40;;
2289;SDS011;1153;47.986;7.898;2022-11-12T14:34:59;26.03;;;15.83;;
2289;SDS011;1153;47.986;7.898;2022-11-12T14:37:31;24.00;;;13.83;;
2289;SDS011;1153;47.986;7.898;2022-11-12T14:39:58;27.17;;;16.40;;
2289;SDS011;1153;47.986;7.898;2022-11-12T14:42:23;26.30;;;14.27;;
2289;SDS011;1153;47.986;7.898;2022-11-12T14:44:48;30.03;;;15.83;;
2289;SDS011;1153;47.986;7.898;2022-11-12T14:47:15;25.90;;;15.73;;
2289;SDS011;1153;47.986;7.898;2022-11-12T14:49:41;25.47;;;15.40;;
2289;SDS011;1153;47.986;7.898;2022-11-12T14:52:11;29.97;;;16.17;;
2289;SDS011;1153;47.986;7.898;2022-11-12T14:54:40;24.40;;;15.80;;
2289;SDS011;1153;47.986;7.898;2022-11-12T14:57:09;27.73;;;14.60;;
2289;SDS011;1153;47.986;7.898;2022-11-12T14:59:41;24.00;;;14.83;;
2289;SDS011;1153;47.986;7.898;2022-11-12T15:02:08;26.20;;;14.53;;
2289;SDS011;1153;47.986;7.898;2022-11-12T15:04:58;24.30;;;14.40;;
2289;SDS011;1153;47.986;7.898;2022-11-12T15:07:26;24.73;;;14.40;;
2289;SDS011;1153;47.986;7.898;2022-11-12T15:09:51;31.23;;;15.40;;
2289;SDS011;1153;47.986;7.898;2022-11-12T15:12:21;26.80;;;14.40;;
2289;SDS011;1153;47.986;7.898;2022-11-12T15:14:47;28.07;;;15.50;;
2289;SDS011;1153;47.986;7.898;2022-11-12T15:17:30;29.90;;;16.47;;
2289;SDS011;1153;47.986;7.898;2022-11-12T15:20:05;25.47;;;15.03;;
2289;SDS011;1153;47.986;7.898;2022-11-12T15:22:36;31.40;;;16.93;;
2289;SDS011;1153;47.986;7.898;2022-11-12T15:25:08;21.87;;;12.77;;
2289;SDS011;1153;47.986;7.898;2022-11-12T15:32:47;31.67;;;15.57;;
2289;SDS011;1153;47.986;7.898;2022-11-12T15:37:44;28.30;;;16.20;;
2289;SDS011;1153;47.986;7.898;2022-11-12T15:40:10;32.93;;;16.77;;
2289;SDS011;1153;47.986;7.898;2022-11-12T15:42:37;30.40;;;15.90;;
2289;SDS011;1153;47.986;7.898;2022-11-12T15:45:23;30.67;;;14.80;;
2289;SDS011;1153;47.986;7.898;2022-11-12T15:47:48;24.27;;;14.00;;
2289;SDS011;1153;47.986;7.898;2022-11-12T15:50:17;40.73;;;15.63;;
2289;SDS011;1153;47.986;7.898;2022-11-12T15:52:42;41.50;;;18.20;;
2289;SDS011;1153;47.986;7.898;2022-11-12T15:55:08;31.67;;;15.60;;
2289;SDS011;1153;47.986;7.898;2022-11-12T15:57:37;30.17;;;16.03;;
2289;SDS011;1153;47.986;7.898;2022-11-12T16:00:05;30.73;;;14.33;;
2289;SDS011;1153;47.986;7.898;2022-11-12T16:02:31;29.57;;;14.03;;
2289;SDS011;1153;47.986;7.898;2022-11-12T16:04:57;27.80;;;15.67;;
2289;SDS011;1153;47.986;7.898;2022-11-12T16:07:22;26.30;;;15.00;;
2289;SDS011;1153;47.986;7.898;2022-11-12T16:09:47;28.17;;;16.00;;
2289;SDS011;1153;47.986;7.898;2022-11-12T16:12:12;26.37;;;15.73;;
2289;SDS011;1153;47.986;7.898;2022-11-12T16:14:38;33.83;;;16.43;;
2289;SDS011;1153;47.986;7.898;2022-11-12T16:17:04;28.23;;;15.97;;
2289;SDS011;1153;47.986;7.898;2022-11-12T16:19:30;33.27;;;18.30;;
2289;SDS011;1153;47.986;7.898;2022-11-12T16:21:58;32.20;;;17.23;;
2289;SDS011;1153;47.986;7.898;2022-11-12T16:24:24;30.00;;;16.70;;
2289;SDS011;1153;47.986;7.898;2022-11-12T16:26:49;31.40;;;17.10;;
2289;SDS011;1153;47.986;7.898;2022-11-12T16:29:14;26.13;;;15.23;;
2289;SDS011;1153;47.986;7.898;2022-11-12T16:31:41;30.80;;;16.37;;
2289;SDS011;1153;47.986;7.898;2022-11-12T16:34:06;36.10;;;15.87;;
2289;SDS011;1153;47.986;7.898;2022-11-12T16:36:32;28.43;;;15.17;;
2289;SDS011;1153;47.986;7.898;2022-11-12T16:38:57;23.40;;;14.80;;
2289;SDS011;1153;47.986;7.898;2022-11-12T16:41:22;26.17;;;13.80;;
2289;SDS011;1153;47.986;7.898;2022-11-12T16:43:47;29.93;;;17.30;;
2289;SDS011;1153;47.986;7.898;2022-11-12T16:46:20;26.83;;;15.80;;
2289;SDS011;1153;47.986;7.898;2022-11-12T16:48:47;26.93;;;16.30;;
2289;SDS011;1153;47.986;7.898;2022-11-12T16:51:16;31.40;;;17.57;;
2289;SDS011;1153;47.986;7.898;2022-11-12T16:53:42;31.67;;;15.60;;
2289;SDS011;1153;47.986;7.898;2022-11-12T16:56:17;28.17;;;15.10;;
2289;SDS011;1153;47.986;7.898;2022-11-12T16:58:43;31.83;;;16.00;;
2289;SDS011;1153;47.986;7.898;2022-11-12T17:01:13;28.53;;;16.50;;
2289;SDS011;1153;47.986;7.898;2022-11-12T17:03:39;25.80;;;13.83;;
2289;SDS011;1153;47.986;7.898;2022-11-12T17:06:04;31.03;;;14.77;;
2289;SDS011;1153;47.986;7.898;2022-11-12T17:08:30;25.43;;;14.10;;
2289;SDS011;1153;47.986;7.898;2022-11-12T17:10:55;25.30;;;13.53;;
2289;SDS011;1153;47.986;7.898;2022-11-12T17:13:21;22.47;;;13.37;;
2289;SDS011;1153;47.986;7.898;2022-11-12T17:15:46;24.70;;;12.27;;